sensor_id;sensor_type;location;lat;lon;timestamp;pressure;altitude;pressure_sealevel;temperature;humidity
70589;BME280;58152;49.202;18.744;2022-08-07T00:00:52;97868.03;;;18.08;57.46
70589;BME280;58152;49.202;18.744;2022-08-07T00:03:19;97874.00;;;18.11;57.41
70589;BME280;58152;49.202;18.744;2022-08-07T00:05:45;97868.16;;;18.06;57.33
70589;BME280;58152;49.202;18.744;2022-08-07T00:08:11;97890.13;;;18.08;57.68
70589;BME280;58152;49.202;18.744;2022-08-07T00:10:36;97871.19;;;18.00;57.80
70589;BME280;58152;49.202;18.744;2022-08-07T00:13:04;97882.66;;;18.00;57.55
70589;BME280;58152;49.202;18.744;2022-08-07T00:15:31;97878.44;;;17.98;57.38
70589;BME280;58152;49.202;18.744;2022-08-07T00:17:56;97877.47;;;17.99;58.02
70589;BME280;58152;49.202;18.744;2022-08-07T00:20:23;97874.81;;;17.99;57.67
70589;BME280;58152;49.202;18.744;2022-08-07T00:22:48;97873.25;;;17.96;57.61
70589;BME280;58152;49.202;18.744;2022-08-07T00:25:14;97877.91;;;17.93;57.61
70589;BME280;58152;49.202;18.744;2022-08-07T00:27:40;97881.50;;;17.92;57.96
70589;BME280;58152;49.202;18.744;2022-08-07T00:30:06;97875.44;;;17.90;58.07
70589;BME280;58152;49.202;18.744;2022-08-07T00:32:32;97889.56;;;17.90;58.25
70589;BME280;58152;49.202;18.744;2022-08-07T00:34:57;97887.84;;;17.89;58.00
70589;BME280;58152;49.202;18.744;2022-08-07T00:37:22;97888.16;;;17.85;57.84
70589;BME280;58152;49.202;18.744;2022-08-07T00:39:49;97895.16;;;17.86;57.57
70589;BME280;58152;49.202;18.744;2022-08-07T00:42:15;97884.66;;;17.84;57.49
70589;BME280;58152;49.202;18.744;2022-08-07T00:44:40;97886.66;;;17.81;57.17
70589;BME280;58152;49.202;18.744;2022-08-07T00:47:06;97883.81;;;17.84;57.16
70589;BME280;58152;49.202;18.744;2022-08-07T00:49:33;97892.81;;;17.81;57.36
70589;BME280;58152;49.202;18.744;2022-08-07T00:51:58;97886.78;;;17.79;57.32
70589;BME280;58152;49.202;18.744;2022-08-07T00:54:24;97884.97;;;17.80;57.47
70589;BME280;58152;49.202;18.744;2022-08-07T00:56:50;97881.47;;;17.79;57.53
70589;BME280;58152;49.202;18.744;2022-08-07T00:59:17;97883.34;;;17.77;57.56
70589;BME280;58152;49.202;18.744;2022-08-07T01:01:42;97877.56;;;17.70;57.61
70589;BME280;58152;49.202;18.744;2022-08-07T01:04:08;97878.44;;;17.71;57.79
70589;BME280;58152;49.202;18.744;2022-08-07T01:06:34;97880.22;;;17.70;57.65
70589;BME280;58152;49.202;18.744;2022-08-07T01:09:00;97878.72;;;17.66;57.46
70589;BME280;58152;49.202;18.744;2022-08-07T01:11:31;97887.22;;;17.71;57.62
70589;BME280;58152;49.202;18.744;2022-08-07T01:13:57;97875.78;;;17.71;57.73
70589;BME280;58152;49.202;18.744;2022-08-07T01:16:23;97869.81;;;17.67;57.99
70589;BME280;58152;49.202;18.744;2022-08-07T01:18:49;97876.72;;;17.70;58.14
70589;BME280;58152;49.202;18.744;2022-08-07T01:21:18;97875.13;;;17.67;58.20
70589;BME280;58152;49.202;18.744;2022-08-07T01:23:46;97868.31;;;17.63;58.03
70589;BME280;58152;49.202;18.744;2022-08-07T01:26:14;97873.53;;;17.65;58.33
70589;BME280;58152;49.202;18.744;2022-08-07T01:28:47;97867.47;;;17.63;58.09
70589;BME280;58152;49.202;18.744;2022-08-07T01:31:15;97853.53;;;17.59;58.09
70589;BME280;58152;49.202;18.744;2022-08-07T01:33:41;97870.22;;;17.61;58.21
70589;BME280;58152;49.202;18.744;2022-08-07T01:36:07;97863.00;;;17.63;57.81
70589;BME280;58152;49.202;18.744;2022-08-07T01:38:35;97860.66;;;17.59;58.02
70589;BME280;58152;49.202;18.744;2022-08-07T01:41:03;97863.31;;;17.59;57.72
70589;BME280;58152;49.202;18.744;2022-08-07T01:43:30;97859.72;;;17.60;57.83
70589;BME280;58152;49.202;18.744;2022-08-07T01:45:56;97860.56;;;17.60;57.81
70589;BME280;58152;49.202;18.744;2022-08-07T01:48:23;97856.97;;;17.61;57.78
70589;BME280;58152;49.202;18.744;2022-08-07T01:50:53;97864.91;;;17.61;57.80
70589;BME280;58152;49.202;18.744;2022-08-07T01:53:22;97855.56;;;17.56;57.73
70589;BME280;58152;49.202;18.744;2022-08-07T01:55:50;97851.41;;;17.51;57.89
70589;BME280;58152;49.202;18.744;2022-08-07T01:58:20;97848.34;;;17.58;58.05
70589;BME280;58152;49.202;18.744;2022-08-07T02:00:50;97860.94;;;17.54;57.83
70589;BME280;58152;49.202;18.744;2022-08-07T02:03:19;97836.66;;;17.47;57.59
70589;BME280;58152;49.202;18.744;2022-08-07T02:05:58;97849.06;;;17.47;57.30
70589;BME280;58152;49.202;18.744;2022-08-07T02:08:28;97856.91;;;17.48;57.43
70589;BME280;58152;49.202;18.744;2022-08-07T02:10:55;97849.25;;;17.44;57.64
70589;BME280;58152;49.202;18.744;2022-08-07T02:13:26;97856.91;;;17.48;57.73
70589;BME280;58152;49.202;18.744;2022-08-07T02:15:53;97854.44;;;17.45;57.60
70589;BME280;58152;49.202;18.744;2022-08-07T02:18:21;97854.44;;;17.45;57.60
70589;BME280;58152;49.202;18.744;2022-08-07T02:20:50;97853.03;;;17.40;57.38
70589;BME280;58152;49.202;18.744;2022-08-07T02:23:17;97844.13;;;17.41;57.54
70589;BME280;58152;49.202;18.744;2022-08-07T02:25:43;97844.66;;;17.33;57.44
70589;BME280;58152;49.202;18.744;2022-08-07T02:28:09;97851.75;;;17.33;57.29
70589;BME280;58152;49.202;18.744;2022-08-07T02:30:37;97847.19;;;17.35;57.08
70589;BME280;58152;49.202;18.744;2022-08-07T02:33:04;97845.50;;;17.34;56.84
70589;BME280;58152;49.202;18.744;2022-08-07T02:35:32;97852.69;;;17.32;56.97
70589;BME280;58152;49.202;18.744;2022-08-07T02:38:00;97841.34;;;17.30;57.25
70589;BME280;58152;49.202;18.744;2022-08-07T02:40:28;97854.41;;;17.33;57.07
70589;BME280;58152;49.202;18.744;2022-08-07T02:42:55;97851.09;;;17.29;57.08
70589;BME280;58152;49.202;18.744;2022-08-07T02:45:24;97857.25;;;17.30;56.96
70589;BME280;58152;49.202;18.744;2022-08-07T02:47:50;97858.22;;;17.28;56.89
70589;BME280;58152;49.202;18.744;2022-08-07T02:50:16;97859.16;;;17.27;57.01
70589;BME280;58152;49.202;18.744;2022-08-07T02:52:46;97865.31;;;17.28;56.62
70589;BME280;58152;49.202;18.744;2022-08-07T02:55:25;97861.03;;;17.25;56.88
70589;BME280;58152;49.202;18.744;2022-08-07T02:57:53;97862.84;;;17.25;56.89
70589;BME280;58152;49.202;18.744;2022-08-07T03:00:20;97857.72;;;17.22;57.16
70589;BME280;58152;49.202;18.744;2022-08-07T03:02:48;97855.09;;;17.22;56.93
70589;BME280;58152;49.202;18.744;2022-08-07T03:05:17;97846.56;;;17.17;56.88
70589;BME280;58152;49.202;18.744;2022-08-07T03:07:43;97854.44;;;17.18;56.93
70589;BME280;58152;49.202;18.744;2022-08-07T03:10:11;97846.56;;;17.17;56.81
70589;BME280;58152;49.202;18.744;2022-08-07T03:12:37;97856.34;;;17.16;56.96
70589;BME280;58152;49.202;18.744;2022-08-07T03:15:03;97851.88;;;17.17;56.78
70589;BME280;58152;49.202;18.744;2022-08-07T03:17:30;97862.41;;;17.18;56.90
70589;BME280;58152;49.202;18.744;2022-08-07T03:19:57;97861.44;;;17.19;56.67
70589;BME280;58152;49.202;18.744;2022-08-07T03:22:24;97851.13;;;17.15;56.43
70589;BME280;58152;49.202;18.744;2022-08-07T03:24:49;97862.41;;;17.18;56.61
70589;BME280;58152;49.202;18.744;2022-08-07T03:27:15;97864.19;;;17.18;56.41
70589;BME280;58152;49.202;18.744;2022-08-07T03:29:45;97859.75;;;17.18;56.13
70589;BME280;58152;49.202;18.744;2022-08-07T03:32:13;97857.94;;;17.19;56.45
70589;BME280;58152;49.202;18.744;2022-08-07T03:34:41;97861.44;;;17.19;56.21
70589;BME280;58152;49.202;18.744;2022-08-07T03:37:09;97848.50;;;17.15;56.13
70589;BME280;58152;49.202;18.744;2022-08-07T03:39:35;97846.56;;;17.17;55.93
70589;BME280;58152;49.202;18.744;2022-08-07T03:42:04;97846.56;;;17.17;55.88
70589;BME280;58152;49.202;18.744;2022-08-07T03:44:32;97843.06;;;17.16;56.07
70589;BME280;58152;49.202;18.744;2022-08-07T03:46:59;97844.78;;;17.17;55.90
70589;BME280;58152;49.202;18.744;2022-08-07T03:49:25;97849.03;;;17.20;55.90
70589;BME280;58152;49.202;18.744;2022-08-07T03:51:52;97851.03;;;17.16;55.78
70589;BME280;58152;49.202;18.744;2022-08-07T03:54:18;97851.88;;;17.17;55.71
70589;BME280;58152;49.202;18.744;2022-08-07T03:56:44;97853.38;;;17.21;55.49
70589;BME280;58152;49.202;18.744;2022-08-07T03:59:11;97855.31;;;17.19;55.72
70589;BME280;58152;49.202;18.744;2022-08-07T04:01:44;97845.00;;;17.14;55.60
70589;BME280;58152;49.202;18.744;2022-08-07T04:04:10;97856.03;;;17.21;55.94
70589;BME280;58152;49.202;18.744;2022-08-07T04:06:37;97856.03;;;17.21;56.08
70589;BME280;58152;49.202;18.744;2022-08-07T04:09:06;97850.00;;;17.19;55.80
70589;BME280;58152;49.202;18.744;2022-08-07T04:11:32;97851.81;;;17.18;55.94
70589;BME280;58152;49.202;18.744;2022-08-07T04:13:59;97855.94;;;17.22;56.08
70589;BME280;58152;49.202;18.744;2022-08-07T04:16:26;97855.00;;;17.23;55.99
70589;BME280;58152;49.202;18.744;2022-08-07T04:18:52;97852.53;;;17.20;56.22
70589;BME280;58152;49.202;18.744;2022-08-07T04:21:17;97856.88;;;17.21;56.12
70589;BME280;58152;49.202;18.744;2022-08-07T04:23:44;97856.81;;;17.23;55.90
70589;BME280;58152;49.202;18.744;2022-08-07T04:26:10;97854.06;;;17.24;55.92
70589;BME280;58152;49.202;18.744;2022-08-07T04:28:35;97869.13;;;17.24;56.42
70589;BME280;58152;49.202;18.744;2022-08-07T04:31:01;97863.81;;;17.24;55.97
70589;BME280;58152;49.202;18.744;2022-08-07T04:33:27;97869.78;;;17.27;56.25
70589;BME280;58152;49.202;18.744;2022-08-07T04:35:53;97864.53;;;17.26;56.22
70589;BME280;58152;49.202;18.744;2022-08-07T04:38:19;97869.78;;;17.27;56.16
70589;BME280;58152;49.202;18.744;2022-08-07T04:40:46;97867.19;;;17.26;56.43
70589;BME280;58152;49.202;18.744;2022-08-07T04:43:15;97880.81;;;17.34;56.42
70589;BME280;58152;49.202;18.744;2022-08-07T04:54:48;97883.19;;;17.39;56.77
70589;BME280;58152;49.202;18.744;2022-08-07T05:00:10;97876.91;;;17.40;56.74
70589;BME280;58152;49.202;18.744;2022-08-07T05:02:53;97868.22;;;17.38;56.48
70589;BME280;58152;49.202;18.744;2022-08-07T05:05:34;97870.66;;;17.41;56.79
70589;BME280;58152;49.202;18.744;2022-08-07T05:08:23;97887.34;;;17.43;56.90
70589;BME280;58152;49.202;18.744;2022-08-07T05:10:57;97880.22;;;17.43;56.50
70589;BME280;58152;49.202;18.744;2022-08-07T05:13:29;97886.19;;;17.47;56.77
70589;BME280;58152;49.202;18.744;2022-08-07T05:16:03;97873.97;;;17.44;56.89
70589;BME280;58152;49.202;18.744;2022-08-07T05:18:33;97874.75;;;17.46;56.96
70589;BME280;58152;49.202;18.744;2022-08-07T05:21:02;97875.59;;;17.47;57.03
70589;BME280;58152;49.202;18.744;2022-08-07T05:24:02;97868.59;;;17.46;57.31
70589;BME280;58152;49.202;18.744;2022-08-07T05:26:32;97879.81;;;17.49;56.85
70589;BME280;58152;49.202;18.744;2022-08-07T05:29:00;97873.66;;;17.49;57.14
70589;BME280;58152;49.202;18.744;2022-08-07T05:31:30;97877.81;;;17.53;57.18
70589;BME280;58152;49.202;18.744;2022-08-07T05:33:58;97877.72;;;17.54;57.12
70589;BME280;58152;49.202;18.744;2022-08-07T05:36:25;97884.81;;;17.54;57.12
70589;BME280;58152;49.202;18.744;2022-08-07T05:38:52;97888.13;;;17.58;57.11
70589;BME280;58152;49.202;18.744;2022-08-07T05:41:19;97886.34;;;17.58;57.20
70589;BME280;58152;49.202;18.744;2022-08-07T05:43:48;97898.34;;;17.64;57.53
70589;BME280;58152;49.202;18.744;2022-08-07T05:46:15;97880.66;;;17.64;57.29
70589;BME280;58152;49.202;18.744;2022-08-07T05:48:44;97897.47;;;17.77;57.24
70589;BME280;58152;49.202;18.744;2022-08-07T05:51:10;97893.97;;;17.77;57.05
70589;BME280;58152;49.202;18.744;2022-08-07T05:53:36;97901.00;;;17.78;56.76
70589;BME280;58152;49.202;18.744;2022-08-07T05:56:02;97903.53;;;17.80;56.73
70589;BME280;58152;49.202;18.744;2022-08-07T05:58:29;97896.84;;;17.74;56.86
70589;BME280;58152;49.202;18.744;2022-08-07T06:00:56;97892.44;;;17.73;56.80
70589;BME280;58152;49.202;18.744;2022-08-07T06:03:22;97898.53;;;17.75;57.03
70589;BME280;58152;49.202;18.744;2022-08-07T06:05:49;97893.38;;;17.72;56.99
70589;BME280;58152;49.202;18.744;2022-08-07T06:08:15;97900.22;;;17.76;57.15
70589;BME280;58152;49.202;18.744;2022-08-07T06:10:41;97903.00;;;17.74;57.00
70589;BME280;58152;49.202;18.744;2022-08-07T06:13:07;97905.81;;;17.71;57.05
70589;BME280;58152;49.202;18.744;2022-08-07T06:15:34;97900.38;;;17.73;57.05
70589;BME280;58152;49.202;18.744;2022-08-07T06:18:01;97900.50;;;17.71;57.30
70589;BME280;58152;49.202;18.744;2022-08-07T06:20:29;97911.00;;;17.73;57.15
70589;BME280;58152;49.202;18.744;2022-08-07T06:22:56;97912.75;;;17.74;57.16
70589;BME280;58152;49.202;18.744;2022-08-07T06:25:22;97909.31;;;17.72;57.34
70589;BME280;58152;49.202;18.744;2022-08-07T06:27:47;97903.16;;;17.71;57.20
70589;BME280;58152;49.202;18.744;2022-08-07T06:30:13;97916.81;;;17.80;57.12
70589;BME280;58152;49.202;18.744;2022-08-07T06:32:39;97912.25;;;17.82;57.53
70589;BME280;58152;49.202;18.744;2022-08-07T06:35:04;97895.38;;;17.83;57.37
70589;BME280;58152;49.202;18.744;2022-08-07T06:37:30;97896.44;;;17.80;57.32
70589;BME280;58152;49.202;18.744;2022-08-07T06:39:56;97896.88;;;17.87;57.17
70589;BME280;58152;49.202;18.744;2022-08-07T06:42:32;97904.53;;;17.91;57.49
70589;BME280;58152;49.202;18.744;2022-08-07T06:45:04;97901.97;;;17.90;57.13
70589;BME280;58152;49.202;18.744;2022-08-07T06:47:31;97905.94;;;17.97;57.37
70589;BME280;58152;49.202;18.744;2022-08-07T06:49:59;97908.47;;;17.98;57.42
70589;BME280;58152;49.202;18.744;2022-08-07T06:52:32;97906.91;;;18.09;57.40
70589;BME280;58152;49.202;18.744;2022-08-07T06:54:59;97912.88;;;18.12;56.94
70589;BME280;58152;49.202;18.744;2022-08-07T06:57:28;97909.25;;;18.13;56.83
70589;BME280;58152;49.202;18.744;2022-08-07T06:59:56;97906.53;;;18.15;57.11
70589;BME280;58152;49.202;18.744;2022-08-07T07:02:24;97913.94;;;18.22;57.05
70589;BME280;58152;49.202;18.744;2022-08-07T07:04:50;97914.47;;;18.27;57.13
70589;BME280;58152;49.202;18.744;2022-08-07T07:07:16;97916.75;;;18.34;56.82
70589;BME280;58152;49.202;18.744;2022-08-07T07:09:47;97903.34;;;18.35;56.45
70589;BME280;58152;49.202;18.744;2022-08-07T07:12:56;97915.16;;;18.44;56.45
70589;BME280;58152;49.202;18.744;2022-08-07T07:15:13;97919.19;;;18.49;56.18
70589;BME280;58152;49.202;18.744;2022-08-07T07:20:19;97919.84;;;18.53;56.05
70589;BME280;58152;49.202;18.744;2022-08-07T07:22:46;97904.75;;;18.53;56.09
70589;BME280;58152;49.202;18.744;2022-08-07T07:25:14;97914.09;;;18.59;56.01
70589;BME280;58152;49.202;18.744;2022-08-07T07:27:50;97900.72;;;18.61;55.88
70589;BME280;58152;49.202;18.744;2022-08-07T07:30:21;97907.31;;;18.68;55.83
70589;BME280;58152;49.202;18.744;2022-08-07T07:32:52;97904.16;;;18.75;55.68
70589;BME280;58152;49.202;18.744;2022-08-07T07:35:21;97894.56;;;18.73;55.71
70589;BME280;58152;49.202;18.744;2022-08-07T07:37:48;97904.88;;;18.77;55.46
70589;BME280;58152;49.202;18.744;2022-08-07T07:40:17;97898.41;;;18.82;55.54
70589;BME280;58152;49.202;18.744;2022-08-07T07:42:45;97898.41;;;18.82;55.42
70589;BME280;58152;49.202;18.744;2022-08-07T07:45:13;97898.06;;;18.86;55.29
70589;BME280;58152;49.202;18.744;2022-08-07T07:47:41;97901.69;;;18.85;55.28
70589;BME280;58152;49.202;18.744;2022-08-07T07:50:10;97900.72;;;18.86;55.20
70589;BME280;58152;49.202;18.744;2022-08-07T07:52:40;97896.19;;;18.88;55.34
70589;BME280;58152;49.202;18.744;2022-08-07T07:55:07;97905.41;;;18.95;55.46
70589;BME280;58152;49.202;18.744;2022-08-07T07:57:33;97901.69;;;18.98;55.29
70589;BME280;58152;49.202;18.744;2022-08-07T08:00:00;97906.69;;;19.02;55.32
70589;BME280;58152;49.202;18.744;2022-08-07T08:02:28;97910.81;;;19.07;55.46
70589;BME280;58152;49.202;18.744;2022-08-07T08:04:57;97906.34;;;19.07;55.34
70589;BME280;58152;49.202;18.744;2022-08-07T08:07:24;97907.09;;;19.09;55.47
70589;BME280;58152;49.202;18.744;2022-08-07T08:09:51;97916.44;;;19.15;55.38
70589;BME280;58152;49.202;18.744;2022-08-07T08:12:18;97903.38;;;19.12;55.57
70589;BME280;58152;49.202;18.744;2022-08-07T08:14:44;97913.03;;;19.13;55.58
70589;BME280;58152;49.202;18.744;2022-08-07T08:17:11;97906.66;;;19.15;55.29
70589;BME280;58152;49.202;18.744;2022-08-07T08:19:38;97903.56;;;19.21;55.37
70589;BME280;58152;49.202;18.744;2022-08-07T08:22:06;97910.44;;;19.24;55.04
70589;BME280;58152;49.202;18.744;2022-08-07T08:24:54;97903.56;;;19.21;55.18
70589;BME280;58152;49.202;18.744;2022-08-07T08:27:40;97909.19;;;19.29;54.95
70589;BME280;58152;49.202;18.744;2022-08-07T08:30:10;97904.91;;;19.27;54.73
70589;BME280;58152;49.202;18.744;2022-08-07T08:32:58;97896.50;;;19.33;54.29
70589;BME280;58152;49.202;18.744;2022-08-07T08:35:25;97904.03;;;19.39;54.57
70589;BME280;58152;49.202;18.744;2022-08-07T08:37:56;97902.88;;;19.43;54.44
70589;BME280;58152;49.202;18.744;2022-08-07T08:40:30;97907.72;;;19.49;54.07
70589;BME280;58152;49.202;18.744;2022-08-07T08:43:11;97909.84;;;19.57;53.89
70589;BME280;58152;49.202;18.744;2022-08-07T08:45:47;97903.88;;;19.66;53.91
70589;BME280;58152;49.202;18.744;2022-08-07T08:48:45;97906.41;;;19.68;53.82
70589;BME280;58152;49.202;18.744;2022-08-07T08:54:17;97914.03;;;19.85;53.82
70589;BME280;58152;49.202;18.744;2022-08-07T08:56:47;97914.88;;;19.86;53.55
70589;BME280;58152;49.202;18.744;2022-08-07T08:59:28;97918.53;;;19.96;52.77
70589;BME280;58152;49.202;18.744;2022-08-07T09:04:50;97923.81;;;20.09;53.29
70589;BME280;58152;49.202;18.744;2022-08-07T09:07:37;97921.00;;;20.10;53.10
70589;BME280;58152;49.202;18.744;2022-08-07T09:10:16;97923.25;;;20.16;53.14
70589;BME280;58152;49.202;18.744;2022-08-07T09:15:32;97919.19;;;20.35;52.92
70589;BME280;58152;49.202;18.744;2022-08-07T09:28:46;97919.59;;;20.52;52.03
70589;BME280;58152;49.202;18.744;2022-08-07T09:31:30;97910.66;;;20.53;52.73
70589;BME280;58152;49.202;18.744;2022-08-07T09:34:21;97915.72;;;20.56;52.55
70589;BME280;58152;49.202;18.744;2022-08-07T09:37:06;97901.56;;;20.56;52.60
70589;BME280;58152;49.202;18.744;2022-08-07T09:39:52;97897.44;;;20.52;51.78
70589;BME280;58152;49.202;18.744;2022-08-07T09:42:45;97900.72;;;20.55;51.73
70589;BME280;58152;49.202;18.744;2022-08-07T09:48:04;97896.34;;;20.54;51.80
70589;BME280;58152;49.202;18.744;2022-08-07T09:50:35;97905.44;;;20.52;52.67
70589;BME280;58152;49.202;18.744;2022-08-07T09:53:04;97894.91;;;20.50;52.39
70589;BME280;58152;49.202;18.744;2022-08-07T09:58:28;97886.06;;;20.61;51.58
70589;BME280;58152;49.202;18.744;2022-08-07T10:01:31;97891.78;;;20.68;51.86
70589;BME280;58152;49.202;18.744;2022-08-07T10:10:05;97883.78;;;21.13;51.31
70589;BME280;58152;49.202;18.744;2022-08-07T10:12:52;97888.13;;;21.25;50.99
70589;BME280;58152;49.202;18.744;2022-08-07T10:21:14;97861.38;;;21.70;49.38
70589;BME280;58152;49.202;18.744;2022-08-07T10:24:00;97865.03;;;21.69;49.94
70589;BME280;58152;49.202;18.744;2022-08-07T10:27:36;97860.75;;;21.98;49.19
70589;BME280;58152;49.202;18.744;2022-08-07T10:35:35;97855.34;;;22.42;48.98
70589;BME280;58152;49.202;18.744;2022-08-07T10:40:59;97852.38;;;22.66;49.14
70589;BME280;58152;49.202;18.744;2022-08-07T10:43:34;97845.66;;;22.92;48.67
70589;BME280;58152;49.202;18.744;2022-08-07T10:46:24;97852.50;;;23.25;47.14
70589;BME280;58152;49.202;18.744;2022-08-07T10:49:05;97849.63;;;23.57;47.28
70589;BME280;58152;49.202;18.744;2022-08-07T10:52:07;97853.75;;;23.91;46.54
70589;BME280;58152;49.202;18.744;2022-08-07T10:57:17;97841.78;;;23.95;46.98
70589;BME280;58152;49.202;18.744;2022-08-07T11:00:07;97844.16;;;24.37;46.03
70589;BME280;58152;49.202;18.744;2022-08-07T11:02:55;97838.81;;;24.17;45.60
70589;BME280;58152;49.202;18.744;2022-08-07T11:06:03;97836.25;;;24.25;44.98
70589;BME280;58152;49.202;18.744;2022-08-07T11:08:44;97834.16;;;24.09;45.96
70589;BME280;58152;49.202;18.744;2022-08-07T11:11:32;97830.06;;;23.86;45.52
70589;BME280;58152;49.202;18.744;2022-08-07T11:14:25;97835.72;;;24.12;45.78
70589;BME280;58152;49.202;18.744;2022-08-07T11:17:03;97820.50;;;23.93;45.63
70589;BME280;58152;49.202;18.744;2022-08-07T11:19:54;97822.44;;;24.20;45.30
70589;BME280;58152;49.202;18.744;2022-08-07T11:22:30;97825.81;;;24.22;46.21
70589;BME280;58152;49.202;18.744;2022-08-07T11:25:16;97824.16;;;24.02;45.50
70589;BME280;58152;49.202;18.744;2022-08-07T11:30:14;97815.25;;;24.11;45.53
70589;BME280;58152;49.202;18.744;2022-08-07T11:35:31;97820.31;;;24.24;45.30
70589;BME280;58152;49.202;18.744;2022-08-07T11:38:07;97807.06;;;24.22;45.29
70589;BME280;58152;49.202;18.744;2022-08-07T11:43:21;97810.88;;;23.91;45.96
70589;BME280;58152;49.202;18.744;2022-08-07T11:46:33;97814.00;;;23.76;45.50
70589;BME280;58152;49.202;18.744;2022-08-07T11:49:11;97798.16;;;23.54;45.34
70589;BME280;58152;49.202;18.744;2022-08-07T11:55:00;97809.28;;;23.49;45.46
70589;BME280;58152;49.202;18.744;2022-08-07T11:57:32;97806.50;;;23.61;46.01
70589;BME280;58152;49.202;18.744;2022-08-07T12:00:06;97815.13;;;23.83;45.62
70589;BME280;58152;49.202;18.744;2022-08-07T12:07:40;97804.13;;;24.72;45.16
70589;BME280;58152;49.202;18.744;2022-08-07T12:10:16;97808.66;;;24.99;45.05
70589;BME280;58152;49.202;18.744;2022-08-07T12:12:54;97793.22;;;25.39;43.63
70589;BME280;58152;49.202;18.744;2022-08-07T12:15:28;97802.50;;;25.44;44.41
70589;BME280;58152;49.202;18.744;2022-08-07T12:18:14;97790.69;;;25.55;42.15
70589;BME280;58152;49.202;18.744;2022-08-07T12:20:56;97793.66;;;25.70;43.12
70589;BME280;58152;49.202;18.744;2022-08-07T12:25:53;97790.72;;;26.34;42.05
70589;BME280;58152;49.202;18.744;2022-08-07T12:28:33;97796.03;;;26.52;41.01
70589;BME280;58152;49.202;18.744;2022-08-07T12:31:07;97790.09;;;26.67;42.21
70589;BME280;58152;49.202;18.744;2022-08-07T12:33:36;97791.66;;;26.51;42.74
70589;BME280;58152;49.202;18.744;2022-08-07T12:36:03;97787.84;;;26.36;42.64
70589;BME280;58152;49.202;18.744;2022-08-07T12:38:29;97786.28;;;26.77;41.49
70589;BME280;58152;49.202;18.744;2022-08-07T12:40:58;97779.91;;;26.86;41.54
70589;BME280;58152;49.202;18.744;2022-08-07T12:43:29;97781.75;;;27.20;41.04
70589;BME280;58152;49.202;18.744;2022-08-07T12:51:40;97767.75;;;27.92;40.06
70589;BME280;58152;49.202;18.744;2022-08-07T12:54:24;97768.56;;;28.17;37.89
70589;BME280;58152;49.202;18.744;2022-08-07T12:56:53;97770.56;;;28.31;38.69
70589;BME280;58152;49.202;18.744;2022-08-07T12:59:25;97781.19;;;28.57;38.18
70589;BME280;58152;49.202;18.744;2022-08-07T13:07:05;97774.00;;;28.88;37.69
70589;BME280;58152;49.202;18.744;2022-08-07T13:13:00;97770.25;;;29.06;37.44
70589;BME280;58152;49.202;18.744;2022-08-07T13:16:15;97773.16;;;28.96;35.11
70589;BME280;58152;49.202;18.744;2022-08-07T13:21:22;97768.38;;;29.37;35.83
70589;BME280;58152;49.202;18.744;2022-08-07T13:24:06;97765.94;;;28.72;35.80
70589;BME280;58152;49.202;18.744;2022-08-07T13:26:41;97771.56;;;28.54;36.60
70589;BME280;58152;49.202;18.744;2022-08-07T13:29:11;97759.09;;;28.45;37.86
70589;BME280;58152;49.202;18.744;2022-08-07T13:31:56;97761.66;;;28.14;36.52
70589;BME280;58152;49.202;18.744;2022-08-07T13:34:45;97766.56;;;27.94;36.71
70589;BME280;58152;49.202;18.744;2022-08-07T13:37:44;97770.94;;;27.79;37.68
70589;BME280;58152;49.202;18.744;2022-08-07T13:42:39;97760.97;;;27.63;38.93
70589;BME280;58152;49.202;18.744;2022-08-07T13:45:06;97773.78;;;27.69;38.79
70589;BME280;58152;49.202;18.744;2022-08-07T13:47:35;97763.66;;;27.63;39.09
70589;BME280;58152;49.202;18.744;2022-08-07T13:50:02;97761.13;;;27.61;39.04
70589;BME280;58152;49.202;18.744;2022-08-07T13:52:32;97758.63;;;27.76;38.79
70589;BME280;58152;49.202;18.744;2022-08-07T13:55:05;97747.72;;;27.86;39.06
70589;BME280;58152;49.202;18.744;2022-08-07T13:57:33;97747.69;;;27.94;39.14
70589;BME280;58152;49.202;18.744;2022-08-07T13:59:59;97753.06;;;27.94;39.40
70589;BME280;58152;49.202;18.744;2022-08-07T14:02:27;97740.94;;;28.06;38.71
70589;BME280;58152;49.202;18.744;2022-08-07T14:05:00;97749.50;;;28.51;38.37
70589;BME280;58152;49.202;18.744;2022-08-07T14:07:30;97751.91;;;28.77;37.89
70589;BME280;58152;49.202;18.744;2022-08-07T14:09:58;97741.69;;;28.64;38.19
70589;BME280;58152;49.202;18.744;2022-08-07T14:12:37;97736.44;;;28.62;37.12
70589;BME280;58152;49.202;18.744;2022-08-07T14:15:18;97734.97;;;28.99;36.85
70589;BME280;58152;49.202;18.744;2022-08-07T14:17:45;97740.88;;;28.95;37.02
70589;BME280;58152;49.202;18.744;2022-08-07T14:20:18;97741.03;;;29.09;36.94
70589;BME280;58152;49.202;18.744;2022-08-07T14:22:53;97739.97;;;29.19;35.87
70589;BME280;58152;49.202;18.744;2022-08-07T14:25:27;97733.34;;;29.21;36.69
70589;BME280;58152;49.202;18.744;2022-08-07T14:27:54;97725.00;;;29.31;36.48
70589;BME280;58152;49.202;18.744;2022-08-07T14:30:24;97737.72;;;29.22;36.60
70589;BME280;58152;49.202;18.744;2022-08-07T14:32:56;97724.19;;;28.99;36.87
70589;BME280;58152;49.202;18.744;2022-08-07T14:35:25;97729.13;;;28.79;36.63
70589;BME280;58152;49.202;18.744;2022-08-07T14:37:56;97729.56;;;28.60;36.87
70589;BME280;58152;49.202;18.744;2022-08-07T14:40:27;97720.31;;;28.46;37.02
70589;BME280;58152;49.202;18.744;2022-08-07T14:43:09;97729.41;;;28.45;37.25
70589;BME280;58152;49.202;18.744;2022-08-07T14:45:42;97720.00;;;28.33;36.67
70589;BME280;58152;49.202;18.744;2022-08-07T14:48:10;97723.53;;;28.25;37.75
70589;BME280;58152;49.202;18.744;2022-08-07T14:51:07;97724.22;;;28.35;35.31
70589;BME280;58152;49.202;18.744;2022-08-07T14:53:39;97719.28;;;28.55;36.92